sensor_id;sensor_type;location;lat;lon;timestamp;P1;durP1;ratioP1;P2;durP2;ratioP2
39750;SDS011;37579;51.074;17.004;2024-02-15T00:00:01;4.10;;;2.55;;
39750;SDS011;37579;51.074;17.004;2024-02-15T00:02:33;4.93;;;2.53;;
39750;SDS011;37579;51.074;17.004;2024-02-15T00:05:02;4.20;;;2.60;;
39750;SDS011;37579;51.074;17.004;2024-02-15T00:07:33;3.75;;;2.28;;
39750;SDS011;37579;51.074;17.004;2024-02-15T00:10:02;5.63;;;2.58;;
39750;SDS011;37579;51.074;17.004;2024-02-15T00:12:33;3.78;;;2.75;;
39750;SDS011;37579;51.074;17.004;2024-02-15T00:15:02;4.93;;;2.78;;
39750;SDS011;37579;51.074;17.004;2024-02-15T00:17:32;4.65;;;2.45;;
39750;SDS011;37579;51.074;17.004;2024-02-15T00:20:02;4.80;;;2.63;;
39750;SDS011;37579;51.074;17.004;2024-02-15T00:25:06;4.07;;;2.50;;
39750;SDS011;37579;51.074;17.004;2024-02-15T00:27:39;4.20;;;2.35;;
39750;SDS011;37579;51.074;17.004;2024-02-15T00:30:08;5.68;;;2.60;;
39750;SDS011;37579;51.074;17.004;2024-02-15T00:32:38;4.10;;;2.63;;
39750;SDS011;37579;51.074;17.004;2024-02-15T00:35:09;4.45;;;2.40;;
39750;SDS011;37579;51.074;17.004;2024-02-15T00:37:40;3.90;;;2.60;;
39750;SDS011;37579;51.074;17.004;2024-02-15T00:40:12;4.07;;;2.60;;
39750;SDS011;37579;51.074;17.004;2024-02-15T00:42:42;5.75;;;2.83;;
39750;SDS011;37579;51.074;17.004;2024-02-15T00:45:13;4.80;;;2.75;;
39750;SDS011;37579;51.074;17.004;2024-02-15T00:47:43;3.85;;;2.63;;
39750;SDS011;37579;51.074;17.004;2024-02-15T00:50:12;4.07;;;2.83;;
39750;SDS011;37579;51.074;17.004;2024-02-15T00:52:41;5.00;;;2.47;;
39750;SDS011;37579;51.074;17.004;2024-02-15T00:55:11;3.60;;;2.22;;
39750;SDS011;37579;51.074;17.004;2024-02-15T00:57:40;4.85;;;2.65;;
39750;SDS011;37579;51.074;17.004;2024-02-15T01:00:09;3.47;;;2.25;;
39750;SDS011;37579;51.074;17.004;2024-02-15T01:02:39;3.90;;;2.50;;
39750;SDS011;37579;51.074;17.004;2024-02-15T01:05:08;3.70;;;2.17;;
39750;SDS011;37579;51.074;17.004;2024-02-15T01:07:40;4.03;;;2.13;;
39750;SDS011;37579;51.074;17.004;2024-02-15T01:10:10;3.75;;;2.50;;
39750;SDS011;37579;51.074;17.004;2024-02-15T01:12:39;3.83;;;2.33;;
39750;SDS011;37579;51.074;17.004;2024-02-15T01:15:09;4.07;;;2.42;;
39750;SDS011;37579;51.074;17.004;2024-02-15T01:17:41;3.80;;;2.42;;
39750;SDS011;37579;51.074;17.004;2024-02-15T01:20:10;4.85;;;2.22;;
39750;SDS011;37579;51.074;17.004;2024-02-15T01:22:40;4.35;;;2.38;;
39750;SDS011;37579;51.074;17.004;2024-02-15T01:25:10;4.03;;;2.22;;
39750;SDS011;37579;51.074;17.004;2024-02-15T01:27:40;3.70;;;2.42;;
39750;SDS011;37579;51.074;17.004;2024-02-15T01:30:10;4.68;;;2.50;;
39750;SDS011;37579;51.074;17.004;2024-02-15T01:32:39;3.33;;;2.00;;
39750;SDS011;37579;51.074;17.004;2024-02-15T01:35:09;4.00;;;2.38;;
39750;SDS011;37579;51.074;17.004;2024-02-15T01:37:38;5.45;;;2.72;;
39750;SDS011;37579;51.074;17.004;2024-02-15T01:40:07;6.07;;;2.63;;
39750;SDS011;37579;51.074;17.004;2024-02-15T01:42:38;3.83;;;2.45;;
39750;SDS011;37579;51.074;17.004;2024-02-15T01:45:08;4.43;;;2.20;;
39750;SDS011;37579;51.074;17.004;2024-02-15T01:47:40;4.77;;;2.40;;
39750;SDS011;37579;51.074;17.004;2024-02-15T01:50:10;2.83;;;1.85;;
39750;SDS011;37579;51.074;17.004;2024-02-15T01:52:41;2.90;;;2.05;;
39750;SDS011;37579;51.074;17.004;2024-02-15T01:55:12;3.40;;;2.03;;
39750;SDS011;37579;51.074;17.004;2024-02-15T01:57:44;4.47;;;2.20;;
39750;SDS011;37579;51.074;17.004;2024-02-15T02:00:13;2.92;;;2.10;;
39750;SDS011;37579;51.074;17.004;2024-02-15T02:02:45;4.30;;;2.15;;
39750;SDS011;37579;51.074;17.004;2024-02-15T02:05:16;3.08;;;2.17;;
39750;SDS011;37579;51.074;17.004;2024-02-15T02:07:46;2.65;;;2.03;;
39750;SDS011;37579;51.074;17.004;2024-02-15T02:10:17;3.28;;;1.90;;
39750;SDS011;37579;51.074;17.004;2024-02-15T02:12:48;2.97;;;2.03;;
39750;SDS011;37579;51.074;17.004;2024-02-15T02:15:18;3.75;;;2.20;;
39750;SDS011;37579;51.074;17.004;2024-02-15T02:17:48;4.53;;;2.00;;
39750;SDS011;37579;51.074;17.004;2024-02-15T02:20:17;3.50;;;2.00;;
39750;SDS011;37579;51.074;17.004;2024-02-15T02:22:48;4.75;;;2.53;;
39750;SDS011;37579;51.074;17.004;2024-02-15T02:25:24;4.05;;;2.15;;
39750;SDS011;37579;51.074;17.004;2024-02-15T02:27:53;2.95;;;1.98;;
39750;SDS011;37579;51.074;17.004;2024-02-15T02:30:24;4.00;;;2.50;;
39750;SDS011;37579;51.074;17.004;2024-02-15T02:32:58;2.75;;;2.05;;
39750;SDS011;37579;51.074;17.004;2024-02-15T02:35:27;4.97;;;1.90;;
39750;SDS011;37579;51.074;17.004;2024-02-15T02:37:58;4.07;;;2.33;;
39750;SDS011;37579;51.074;17.004;2024-02-15T02:40:27;3.00;;;1.90;;
39750;SDS011;37579;51.074;17.004;2024-02-15T02:42:57;3.03;;;2.15;;
39750;SDS011;37579;51.074;17.004;2024-02-15T02:45:26;3.90;;;2.03;;
39750;SDS011;37579;51.074;17.004;2024-02-15T02:47:55;2.85;;;2.25;;
39750;SDS011;37579;51.074;17.004;2024-02-15T02:50:25;4.80;;;2.10;;
39750;SDS011;37579;51.074;17.004;2024-02-15T02:52:55;4.10;;;2.03;;
39750;SDS011;37579;51.074;17.004;2024-02-15T02:55:24;4.65;;;2.20;;
39750;SDS011;37579;51.074;17.004;2024-02-15T02:57:53;4.40;;;2.13;;
39750;SDS011;37579;51.074;17.004;2024-02-15T03:00:23;2.75;;;1.88;;
39750;SDS011;37579;51.074;17.004;2024-02-15T03:02:54;2.75;;;1.75;;
39750;SDS011;37579;51.074;17.004;2024-02-15T03:05:25;2.75;;;1.80;;
39750;SDS011;37579;51.074;17.004;2024-02-15T03:07:56;2.83;;;1.73;;
39750;SDS011;37579;51.074;17.004;2024-02-15T03:10:28;3.00;;;1.92;;
39750;SDS011;37579;51.074;17.004;2024-02-15T03:12:59;2.70;;;1.80;;
39750;SDS011;37579;51.074;17.004;2024-02-15T03:15:30;3.13;;;1.98;;
39750;SDS011;37579;51.074;17.004;2024-02-15T03:18:02;3.92;;;2.10;;
39750;SDS011;37579;51.074;17.004;2024-02-15T03:20:32;2.95;;;1.80;;
39750;SDS011;37579;51.074;17.004;2024-02-15T03:23:02;3.33;;;2.00;;
39750;SDS011;37579;51.074;17.004;2024-02-15T03:25:33;4.13;;;1.98;;
39750;SDS011;37579;51.074;17.004;2024-02-15T03:28:03;3.97;;;1.83;;
39750;SDS011;37579;51.074;17.004;2024-02-15T03:30:32;3.17;;;1.80;;
39750;SDS011;37579;51.074;17.004;2024-02-15T03:33:02;2.88;;;1.95;;
39750;SDS011;37579;51.074;17.004;2024-02-15T03:35:31;3.53;;;1.80;;
39750;SDS011;37579;51.074;17.004;2024-02-15T03:38:03;2.35;;;1.80;;
39750;SDS011;37579;51.074;17.004;2024-02-15T03:40:32;2.80;;;1.92;;
39750;SDS011;37579;51.074;17.004;2024-02-15T03:45:37;2.78;;;1.60;;
39750;SDS011;37579;51.074;17.004;2024-02-15T03:48:06;4.22;;;2.20;;
39750;SDS011;37579;51.074;17.004;2024-02-15T03:50:38;4.38;;;2.05;;
39750;SDS011;37579;51.074;17.004;2024-02-15T03:53:10;2.65;;;1.70;;
39750;SDS011;37579;51.074;17.004;2024-02-15T03:55:39;3.67;;;1.88;;
39750;SDS011;37579;51.074;17.004;2024-02-15T03:58:11;2.85;;;1.80;;
39750;SDS011;37579;51.074;17.004;2024-02-15T04:00:42;2.33;;;1.67;;
39750;SDS011;37579;51.074;17.004;2024-02-15T04:03:11;3.80;;;2.05;;
39750;SDS011;37579;51.074;17.004;2024-02-15T04:05:42;2.72;;;1.80;;
39750;SDS011;37579;51.074;17.004;2024-02-15T04:08:14;3.30;;;2.00;;
39750;SDS011;37579;51.074;17.004;2024-02-15T04:10:44;2.75;;;1.88;;
39750;SDS011;37579;51.074;17.004;2024-02-15T04:13:13;3.70;;;1.75;;
39750;SDS011;37579;51.074;17.004;2024-02-15T04:15:44;3.20;;;1.90;;
39750;SDS011;37579;51.074;17.004;2024-02-15T04:18:18;2.83;;;1.92;;
39750;SDS011;37579;51.074;17.004;2024-02-15T04:20:48;2.70;;;1.83;;
39750;SDS011;37579;51.074;17.004;2024-02-15T04:23:19;2.45;;;1.42;;
39750;SDS011;37579;51.074;17.004;2024-02-15T04:25:49;2.67;;;1.40;;
39750;SDS011;37579;51.074;17.004;2024-02-15T04:28:20;2.50;;;1.50;;
39750;SDS011;37579;51.074;17.004;2024-02-15T04:30:52;2.63;;;2.00;;
39750;SDS011;37579;51.074;17.004;2024-02-15T04:33:23;3.67;;;1.95;;
39750;SDS011;37579;51.074;17.004;2024-02-15T04:35:54;2.28;;;1.63;;
39750;SDS011;37579;51.074;17.004;2024-02-15T04:38:29;2.58;;;2.10;;
39750;SDS011;37579;51.074;17.004;2024-02-15T04:41:00;2.97;;;1.40;;
39750;SDS011;37579;51.074;17.004;2024-02-15T04:43:34;2.63;;;1.88;;
39750;SDS011;37579;51.074;17.004;2024-02-15T04:46:06;2.33;;;1.70;;
39750;SDS011;37579;51.074;17.004;2024-02-15T04:48:35;2.03;;;1.60;;
39750;SDS011;37579;51.074;17.004;2024-02-15T04:51:09;2.40;;;1.75;;
39750;SDS011;37579;51.074;17.004;2024-02-15T04:53:45;2.42;;;1.67;;
39750;SDS011;37579;51.074;17.004;2024-02-15T04:56:14;2.97;;;1.77;;
39750;SDS011;37579;51.074;17.004;2024-02-15T04:58:46;2.42;;;1.73;;
39750;SDS011;37579;51.074;17.004;2024-02-15T05:01:16;2.22;;;1.58;;
39750;SDS011;37579;51.074;17.004;2024-02-15T05:03:46;2.70;;;1.70;;
39750;SDS011;37579;51.074;17.004;2024-02-15T05:06:15;2.53;;;1.42;;
39750;SDS011;37579;51.074;17.004;2024-02-15T05:08:44;1.95;;;1.45;;
39750;SDS011;37579;51.074;17.004;2024-02-15T05:11:14;2.83;;;1.77;;
39750;SDS011;37579;51.074;17.004;2024-02-15T05:13:45;2.67;;;1.85;;
39750;SDS011;37579;51.074;17.004;2024-02-15T05:16:18;3.20;;;1.77;;
39750;SDS011;37579;51.074;17.004;2024-02-15T05:18:47;2.70;;;1.60;;
39750;SDS011;37579;51.074;17.004;2024-02-15T05:21:18;2.88;;;1.63;;
39750;SDS011;37579;51.074;17.004;2024-02-15T05:23:50;3.08;;;1.60;;
39750;SDS011;37579;51.074;17.004;2024-02-15T05:26:22;2.88;;;1.48;;
39750;SDS011;37579;51.074;17.004;2024-02-15T05:28:54;2.10;;;1.50;;
39750;SDS011;37579;51.074;17.004;2024-02-15T05:31:23;3.92;;;1.75;;
39750;SDS011;37579;51.074;17.004;2024-02-15T05:33:54;3.05;;;1.70;;
39750;SDS011;37579;51.074;17.004;2024-02-15T05:36:24;2.58;;;1.67;;
39750;SDS011;37579;51.074;17.004;2024-02-15T05:38:54;4.05;;;1.75;;
39750;SDS011;37579;51.074;17.004;2024-02-15T05:41:25;3.47;;;1.75;;
39750;SDS011;37579;51.074;17.004;2024-02-15T05:43:54;3.80;;;1.58;;
39750;SDS011;37579;51.074;17.004;2024-02-15T05:46:24;3.60;;;1.58;;
39750;SDS011;37579;51.074;17.004;2024-02-15T05:48:54;3.47;;;1.45;;
39750;SDS011;37579;51.074;17.004;2024-02-15T05:51:24;3.50;;;1.70;;
39750;SDS011;37579;51.074;17.004;2024-02-15T05:53:56;2.72;;;1.30;;
39750;SDS011;37579;51.074;17.004;2024-02-15T05:56:26;2.80;;;1.33;;
39750;SDS011;37579;51.074;17.004;2024-02-15T05:58:57;2.47;;;1.48;;
39750;SDS011;37579;51.074;17.004;2024-02-15T06:01:35;3.15;;;1.75;;
39750;SDS011;37579;51.074;17.004;2024-02-15T06:04:06;5.47;;;1.70;;
39750;SDS011;37579;51.074;17.004;2024-02-15T06:06:36;2.67;;;1.60;;
39750;SDS011;37579;51.074;17.004;2024-02-15T06:09:08;3.25;;;1.83;;
39750;SDS011;37579;51.074;17.004;2024-02-15T06:11:37;3.80;;;1.45;;
39750;SDS011;37579;51.074;17.004;2024-02-15T06:14:09;3.67;;;1.65;;
39750;SDS011;37579;51.074;17.004;2024-02-15T06:16:43;3.38;;;1.30;;
39750;SDS011;37579;51.074;17.004;2024-02-15T06:19:13;3.65;;;1.73;;
39750;SDS011;37579;51.074;17.004;2024-02-15T06:21:45;3.92;;;1.92;;
39750;SDS011;37579;51.074;17.004;2024-02-15T06:24:16;4.25;;;1.50;;
39750;SDS011;37579;51.074;17.004;2024-02-15T06:26:49;3.97;;;1.30;;
39750;SDS011;37579;51.074;17.004;2024-02-15T06:29:25;2.72;;;1.90;;
39750;SDS011;37579;51.074;17.004;2024-02-15T06:32:13;1.35;;;0.98;;
39750;SDS011;37579;51.074;17.004;2024-02-15T06:35:03;2.90;;;1.60;;
39750;SDS011;37579;51.074;17.004;2024-02-15T06:37:51;4.50;;;2.10;;
39750;SDS011;37579;51.074;17.004;2024-02-15T06:40:39;2.35;;;1.55;;
39750;SDS011;37579;51.074;17.004;2024-02-15T06:43:09;2.75;;;1.50;;
39750;SDS011;37579;51.074;17.004;2024-02-15T06:45:39;2.90;;;1.23;;
39750;SDS011;37579;51.074;17.004;2024-02-15T06:48:11;28.52;;;4.32;;
39750;SDS011;37579;51.074;17.004;2024-02-15T06:50:41;11.95;;;3.22;;
39750;SDS011;37579;51.074;17.004;2024-02-15T06:53:10;19.30;;;3.10;;
39750;SDS011;37579;51.074;17.004;2024-02-15T06:55:40;20.17;;;3.63;;
39750;SDS011;37579;51.074;17.004;2024-02-15T06:58:10;15.30;;;3.60;;
39750;SDS011;37579;51.074;17.004;2024-02-15T07:00:41;16.63;;;3.03;;
39750;SDS011;37579;51.074;17.004;2024-02-15T07:03:10;15.20;;;3.22;;
39750;SDS011;37579;51.074;17.004;2024-02-15T07:05:42;15.45;;;2.55;;
39750;SDS011;37579;51.074;17.004;2024-02-15T07:08:12;14.25;;;3.10;;
39750;SDS011;37579;51.074;17.004;2024-02-15T07:10:44;21.30;;;3.22;;
39750;SDS011;37579;51.074;17.004;2024-02-15T07:13:14;17.83;;;3.00;;
39750;SDS011;37579;51.074;17.004;2024-02-15T07:15:45;11.05;;;2.72;;
39750;SDS011;37579;51.074;17.004;2024-02-15T07:18:17;12.77;;;2.63;;
39750;SDS011;37579;51.074;17.004;2024-02-15T07:20:48;15.27;;;3.20;;
39750;SDS011;37579;51.074;17.004;2024-02-15T07:23:18;12.45;;;2.92;;
39750;SDS011;37579;51.074;17.004;2024-02-15T07:25:50;11.93;;;2.77;;
39750;SDS011;37579;51.074;17.004;2024-02-15T07:28:21;15.80;;;2.88;;
39750;SDS011;37579;51.074;17.004;2024-02-15T07:30:53;20.80;;;3.28;;
39750;SDS011;37579;51.074;17.004;2024-02-15T07:33:27;11.95;;;2.50;;
39750;SDS011;37579;51.074;17.004;2024-02-15T07:36:00;8.85;;;2.85;;
39750;SDS011;37579;51.074;17.004;2024-02-15T07:38:32;13.32;;;2.95;;
39750;SDS011;37579;51.074;17.004;2024-02-15T07:41:03;13.60;;;2.80;;
39750;SDS011;37579;51.074;17.004;2024-02-15T07:43:35;9.00;;;2.53;;
39750;SDS011;37579;51.074;17.004;2024-02-15T07:46:06;18.33;;;3.92;;
39750;SDS011;37579;51.074;17.004;2024-02-15T07:48:39;14.73;;;2.65;;
39750;SDS011;37579;51.074;17.004;2024-02-15T07:51:14;12.43;;;2.95;;
39750;SDS011;37579;51.074;17.004;2024-02-15T07:53:46;15.40;;;3.08;;
39750;SDS011;37579;51.074;17.004;2024-02-15T07:56:18;9.70;;;2.95;;
39750;SDS011;37579;51.074;17.004;2024-02-15T07:58:49;12.82;;;3.05;;
39750;SDS011;37579;51.074;17.004;2024-02-15T08:01:20;14.90;;;3.05;;
39750;SDS011;37579;51.074;17.004;2024-02-15T08:03:52;13.13;;;2.95;;
39750;SDS011;37579;51.074;17.004;2024-02-15T08:06:24;12.60;;;3.05;;
39750;SDS011;37579;51.074;17.004;2024-02-15T08:08:57;9.95;;;2.70;;
39750;SDS011;37579;51.074;17.004;2024-02-15T08:11:32;7.90;;;2.80;;
39750;SDS011;37579;51.074;17.004;2024-02-15T08:14:05;11.15;;;2.63;;
39750;SDS011;37579;51.074;17.004;2024-02-15T08:16:37;7.37;;;2.90;;
39750;SDS011;37579;51.074;17.004;2024-02-15T08:19:08;11.48;;;2.90;;
39750;SDS011;37579;51.074;17.004;2024-02-15T08:21:40;8.57;;;2.75;;
39750;SDS011;37579;51.074;17.004;2024-02-15T08:24:15;11.90;;;2.63;;
39750;SDS011;37579;51.074;17.004;2024-02-15T08:26:47;8.27;;;2.80;;
39750;SDS011;37579;51.074;17.004;2024-02-15T08:29:19;9.98;;;2.70;;
39750;SDS011;37579;51.074;17.004;2024-02-15T08:31:50;8.30;;;2.60;;
39750;SDS011;37579;51.074;17.004;2024-02-15T08:34:21;11.90;;;2.78;;
39750;SDS011;37579;51.074;17.004;2024-02-15T08:36:53;10.98;;;2.83;;
39750;SDS011;37579;51.074;17.004;2024-02-15T08:39:24;10.20;;;2.88;;
39750;SDS011;37579;51.074;17.004;2024-02-15T08:41:56;10.75;;;3.35;;
39750;SDS011;37579;51.074;17.004;2024-02-15T08:44:29;15.93;;;3.28;;
39750;SDS011;37579;51.074;17.004;2024-02-15T08:47:01;13.83;;;2.77;;
39750;SDS011;37579;51.074;17.004;2024-02-15T08:49:31;9.13;;;2.78;;
39750;SDS011;37579;51.074;17.004;2024-02-15T08:52:00;11.30;;;2.70;;
39750;SDS011;37579;51.074;17.004;2024-02-15T08:54:30;13.93;;;3.42;;
39750;SDS011;37579;51.074;17.004;2024-02-15T08:57:04;12.18;;;3.00;;
39750;SDS011;37579;51.074;17.004;2024-02-15T08:59:33;5.47;;;2.67;;
39750;SDS011;37579;51.074;17.004;2024-02-15T09:02:08;11.50;;;2.78;;
39750;SDS011;37579;51.074;17.004;2024-02-15T09:04:37;7.95;;;2.55;;
39750;SDS011;37579;51.074;17.004;2024-02-15T09:07:08;9.45;;;2.35;;
39750;SDS011;37579;51.074;17.004;2024-02-15T09:09:40;9.80;;;3.08;;
39750;SDS011;37579;51.074;17.004;2024-02-15T09:12:09;11.85;;;2.70;;
39750;SDS011;37579;51.074;17.004;2024-02-15T09:14:41;7.50;;;2.80;;
39750;SDS011;37579;51.074;17.004;2024-02-15T09:17:13;11.02;;;3.30;;
39750;SDS011;37579;51.074;17.004;2024-02-15T09:19:47;8.67;;;2.90;;
39750;SDS011;37579;51.074;17.004;2024-02-15T09:22:16;10.27;;;2.80;;
39750;SDS011;37579;51.074;17.004;2024-02-15T09:24:48;10.65;;;3.35;;
39750;SDS011;37579;51.074;17.004;2024-02-15T09:27:17;15.07;;;3.45;;
39750;SDS011;37579;51.074;17.004;2024-02-15T09:29:47;9.23;;;2.80;;
39750;SDS011;37579;51.074;17.004;2024-02-15T09:32:16;7.28;;;2.55;;
39750;SDS011;37579;51.074;17.004;2024-02-15T09:34:47;11.95;;;2.90;;
39750;SDS011;37579;51.074;17.004;2024-02-15T09:37:17;12.27;;;2.95;;
39750;SDS011;37579;51.074;17.004;2024-02-15T09:39:46;7.97;;;2.28;;
39750;SDS011;37579;51.074;17.004;2024-02-15T09:42:15;6.80;;;2.63;;
39750;SDS011;37579;51.074;17.004;2024-02-15T09:44:45;6.53;;;2.50;;
39750;SDS011;37579;51.074;17.004;2024-02-15T09:47:16;7.95;;;2.90;;
39750;SDS011;37579;51.074;17.004;2024-02-15T09:49:48;8.15;;;2.85;;
39750;SDS011;37579;51.074;17.004;2024-02-15T09:52:18;5.75;;;2.33;;
39750;SDS011;37579;51.074;17.004;2024-02-15T09:54:49;6.55;;;3.08;;
39750;SDS011;37579;51.074;17.004;2024-02-15T09:57:21;9.15;;;2.40;;
39750;SDS011;37579;51.074;17.004;2024-02-15T09:59:53;7.88;;;2.60;;
39750;SDS011;37579;51.074;17.004;2024-02-15T10:02:25;8.57;;;2.60;;
39750;SDS011;37579;51.074;17.004;2024-02-15T10:04:57;6.25;;;2.38;;
39750;SDS011;37579;51.074;17.004;2024-02-15T10:07:29;8.23;;;2.40;;
39750;SDS011;37579;51.074;17.004;2024-02-15T10:10:14;7.55;;;2.65;;
39750;SDS011;37579;51.074;17.004;2024-02-15T10:12:46;6.60;;;2.38;;
39750;SDS011;37579;51.074;17.004;2024-02-15T10:18:09;8.20;;;2.60;;
39750;SDS011;37579;51.074;17.004;2024-02-15T10:20:41;10.45;;;2.42;;
39750;SDS011;37579;51.074;17.004;2024-02-15T10:23:14;8.05;;;2.40;;
39750;SDS011;37579;51.074;17.004;2024-02-15T10:25:45;6.70;;;2.45;;
39750;SDS011;37579;51.074;17.004;2024-02-15T10:28:21;9.45;;;2.45;;
39750;SDS011;37579;51.074;17.004;2024-02-15T10:30:54;5.30;;;2.22;;
39750;SDS011;37579;51.074;17.004;2024-02-15T10:33:26;7.40;;;2.50;;
39750;SDS011;37579;51.074;17.004;2024-02-15T10:36:06;7.78;;;2.45;;
39750;SDS011;37579;51.074;17.004;2024-02-15T10:38:38;6.80;;;2.42;;
39750;SDS011;37579;51.074;17.004;2024-02-15T10:41:10;7.28;;;2.42;;
39750;SDS011;37579;51.074;17.004;2024-02-15T10:43:41;9.65;;;2.33;;
39750;SDS011;37579;51.074;17.004;2024-02-15T10:46:13;6.40;;;2.00;;
39750;SDS011;37579;51.074;17.004;2024-02-15T10:48:46;9.23;;;2.42;;
39750;SDS011;37579;51.074;17.004;2024-02-15T10:51:17;10.10;;;2.45;;
39750;SDS011;37579;51.074;17.004;2024-02-15T10:53:54;6.30;;;2.17;;
39750;SDS011;37579;51.074;17.004;2024-02-15T10:56:34;7.50;;;2.60;;
39750;SDS011;37579;51.074;17.004;2024-02-15T11:01:42;9.52;;;2.70;;
39750;SDS011;37579;51.074;17.004;2024-02-15T11:04:14;10.63;;;2.50;;
39750;SDS011;37579;51.074;17.004;2024-02-15T11:06:50;5.72;;;2.42;;
39750;SDS011;37579;51.074;17.004;2024-02-15T11:09:24;5.97;;;2.30;;
39750;SDS011;37579;51.074;17.004;2024-02-15T11:11:56;5.28;;;1.90;;
39750;SDS011;37579;51.074;17.004;2024-02-15T11:14:31;7.03;;;2.10;;
39750;SDS011;37579;51.074;17.004;2024-02-15T11:17:03;7.20;;;2.70;;
39750;SDS011;37579;51.074;17.004;2024-02-15T11:22:13;4.70;;;2.50;;
39750;SDS011;37579;51.074;17.004;2024-02-15T11:24:48;10.70;;;2.03;;
39750;SDS011;37579;51.074;17.004;2024-02-15T11:27:25;5.53;;;1.88;;
39750;SDS011;37579;51.074;17.004;2024-02-15T11:29:57;6.97;;;1.98;;
39750;SDS011;37579;51.074;17.004;2024-02-15T11:35:14;9.48;;;2.10;;
39750;SDS011;37579;51.074;17.004;2024-02-15T11:42:57;6.95;;;2.55;;
39750;SDS011;37579;51.074;17.004;2024-02-15T11:45:29;6.03;;;2.13;;
39750;SDS011;37579;51.074;17.004;2024-02-15T11:48:05;6.00;;;2.17;;
39750;SDS011;37579;51.074;17.004;2024-02-15T11:50:38;8.77;;;2.65;;
39750;SDS011;37579;51.074;17.004;2024-02-15T11:53:10;5.93;;;2.60;;
39750;SDS011;37579;51.074;17.004;2024-02-15T11:55:41;11.35;;;2.80;;
39750;SDS011;37579;51.074;17.004;2024-02-15T11:58:13;7.15;;;2.78;;
39750;SDS011;37579;51.074;17.004;2024-02-15T12:00:58;9.65;;;2.55;;
39750;SDS011;37579;51.074;17.004;2024-02-15T12:03:52;5.50;;;2.15;;
39750;SDS011;37579;51.074;17.004;2024-02-15T12:07:00;9.40;;;2.45;;
39750;SDS011;37579;51.074;17.004;2024-02-15T12:09:50;9.52;;;2.78;;
39750;SDS011;37579;51.074;17.004;2024-02-15T12:12:51;6.10;;;2.60;;
39750;SDS011;37579;51.074;17.004;2024-02-15T12:15:41;4.97;;;2.45;;
39750;SDS011;37579;51.074;17.004;2024-02-15T12:18:31;6.72;;;2.45;;
39750;SDS011;37579;51.074;17.004;2024-02-15T12:21:09;9.95;;;3.00;;
39750;SDS011;37579;51.074;17.004;2024-02-15T12:23:43;10.82;;;3.03;;
39750;SDS011;37579;51.074;17.004;2024-02-15T12:26:20;6.72;;;2.60;;
39750;SDS011;37579;51.074;17.004;2024-02-15T12:28:53;10.05;;;3.05;;
39750;SDS011;37579;51.074;17.004;2024-02-15T12:31:26;8.25;;;2.95;;
39750;SDS011;37579;51.074;17.004;2024-02-15T12:34:01;10.25;;;3.00;;
39750;SDS011;37579;51.074;17.004;2024-02-15T12:36:33;8.18;;;2.80;;
39750;SDS011;37579;51.074;17.004;2024-02-15T12:39:07;6.45;;;2.72;;
39750;SDS011;37579;51.074;17.004;2024-02-15T12:41:47;4.38;;;2.47;;
39750;SDS011;37579;51.074;17.004;2024-02-15T12:44:19;10.80;;;2.92;;
39750;SDS011;37579;51.074;17.004;2024-02-15T12:46:55;8.27;;;2.55;;
39750;SDS011;37579;51.074;17.004;2024-02-15T12:49:31;9.88;;;2.90;;
39750;SDS011;37579;51.074;17.004;2024-02-15T12:55:05;4.82;;;2.38;;
39750;SDS011;37579;51.074;17.004;2024-02-15T12:57:37;10.65;;;2.67;;
39750;SDS011;37579;51.074;17.004;2024-02-15T13:00:14;6.30;;;3.05;;
39750;SDS011;37579;51.074;17.004;2024-02-15T13:02:46;6.57;;;2.70;;
39750;SDS011;37579;51.074;17.004;2024-02-15T13:05:18;9.30;;;2.75;;
39750;SDS011;37579;51.074;17.004;2024-02-15T13:07:50;7.72;;;2.40;;
39750;SDS011;37579;51.074;17.004;2024-02-15T13:10:23;8.93;;;2.38;;
39750;SDS011;37579;51.074;17.004;2024-02-15T13:12:55;5.50;;;2.83;;
39750;SDS011;37579;51.074;17.004;2024-02-15T13:15:26;4.75;;;2.67;;
39750;SDS011;37579;51.074;17.004;2024-02-15T13:17:59;5.00;;;2.60;;
39750;SDS011;37579;51.074;17.004;2024-02-15T13:20:31;6.32;;;2.70;;
39750;SDS011;37579;51.074;17.004;2024-02-15T13:23:03;8.02;;;2.30;;
39750;SDS011;37579;51.074;17.004;2024-02-15T13:25:47;7.78;;;2.58;;
39750;SDS011;37579;51.074;17.004;2024-02-15T13:28:21;9.02;;;2.50;;
39750;SDS011;37579;51.074;17.004;2024-02-15T13:30:53;6.95;;;2.53;;
39750;SDS011;37579;51.074;17.004;2024-02-15T13:33:24;6.90;;;2.40;;
39750;SDS011;37579;51.074;17.004;2024-02-15T13:35:57;5.22;;;2.40;;
39750;SDS011;37579;51.074;17.004;2024-02-15T13:38:29;5.78;;;2.75;;
39750;SDS011;37579;51.074;17.004;2024-02-15T13:41:02;5.15;;;2.30;;
39750;SDS011;37579;51.074;17.004;2024-02-15T13:43:34;5.25;;;2.08;;
39750;SDS011;37579;51.074;17.004;2024-02-15T13:46:06;5.17;;;2.30;;
39750;SDS011;37579;51.074;17.004;2024-02-15T13:48:38;7.10;;;3.28;;
39750;SDS011;37579;51.074;17.004;2024-02-15T13:51:10;5.72;;;2.60;;
39750;SDS011;37579;51.074;17.004;2024-02-15T13:53:41;3.90;;;1.88;;
39750;SDS011;37579;51.074;17.004;2024-02-15T13:56:13;7.13;;;2.28;;
39750;SDS011;37579;51.074;17.004;2024-02-15T13:58:44;7.53;;;3.08;;
39750;SDS011;37579;51.074;17.004;2024-02-15T14:01:15;4.28;;;2.30;;
39750;SDS011;37579;51.074;17.004;2024-02-15T14:03:47;4.90;;;2.33;;
39750;SDS011;37579;51.074;17.004;2024-02-15T14:06:18;3.30;;;1.98;;
39750;SDS011;37579;51.074;17.004;2024-02-15T14:08:49;5.07;;;2.05;;
39750;SDS011;37579;51.074;17.004;2024-02-15T14:11:21;6.13;;;1.90;;
39750;SDS011;37579;51.074;17.004;2024-02-15T14:13:52;4.85;;;2.10;;
39750;SDS011;37579;51.074;17.004;2024-02-15T14:16:24;6.50;;;2.20;;
39750;SDS011;37579;51.074;17.004;2024-02-15T14:18:55;4.20;;;1.88;;
39750;SDS011;37579;51.074;17.004;2024-02-15T14:21:29;6.13;;;2.38;;
39750;SDS011;37579;51.074;17.004;2024-02-15T14:24:04;5.82;;;2.33;;
39750;SDS011;37579;51.074;17.004;2024-02-15T14:26:35;4.65;;;2.10;;
39750;SDS011;37579;51.074;17.004;2024-02-15T14:29:06;4.25;;;1.70;;
39750;SDS011;37579;51.074;17.004;2024-02-15T14:31:39;5.88;;;2.40;;
39750;SDS011;37579;51.074;17.004;2024-02-15T14:34:29;4.57;;;2.20;;
39750;SDS011;37579;51.074;17.004;2024-02-15T14:37:02;3.78;;;1.52;;
39750;SDS011;37579;51.074;17.004;2024-02-15T14:39:35;7.13;;;4.10;;
39750;SDS011;37579;51.074;17.004;2024-02-15T14:42:08;7.65;;;5.57;;
39750;SDS011;37579;51.074;17.004;2024-02-15T14:44:37;6.85;;;4.43;;
39750;SDS011;37579;51.074;17.004;2024-02-15T14:47:09;7.93;;;4.15;;
39750;SDS011;37579;51.074;17.004;2024-02-15T14:49:38;5.07;;;3.30;;
39750;SDS011;37579;51.074;17.004;2024-02-15T14:52:08;8.50;;;3.08;;
39750;SDS011;37579;51.074;17.004;2024-02-15T14:54:39;5.18;;;2.70;;
39750;SDS011;37579;51.074;17.004;2024-02-15T14:57:09;5.63;;;3.08;;
39750;SDS011;37579;51.074;17.004;2024-02-15T14:59:38;6.35;;;3.25;;
39750;SDS011;37579;51.074;17.004;2024-02-15T15:02:08;4.65;;;3.25;;
39750;SDS011;37579;51.074;17.004;2024-02-15T15:04:38;7.97;;;4.22;;
39750;SDS011;37579;51.074;17.004;2024-02-15T15:07:42;7.35;;;5.15;;
39750;SDS011;37579;51.074;17.004;2024-02-15T15:10:30;10.65;;;5.55;;
39750;SDS011;37579;51.074;17.004;2024-02-15T15:13:19;7.20;;;5.32;;
39750;SDS011;37579;51.074;17.004;2024-02-15T15:15:48;8.50;;;5.72;;
39750;SDS011;37579;51.074;17.004;2024-02-15T15:18:18;9.77;;;5.72;;
39750;SDS011;37579;51.074;17.004;2024-02-15T15:20:48;9.80;;;5.50;;
39750;SDS011;37579;51.074;17.004;2024-02-15T15:23:17;8.48;;;5.95;;
39750;SDS011;37579;51.074;17.004;2024-02-15T15:25:47;9.35;;;5.85;;